Time;durP1;ratioP1;P1;durP2;ratioP2;P2;SDS_P1;SDS_P2;PMS_P1;PMS_P2;Temp;Humidity;BMP_temperature;BMP_pressure;BME280_temperature;BME280_humidity;BME280_pressure;Samples;Min_cycle;Max_cycle;Signal;HPM_P1;HPM_P2
2021/11/17 02:26:55;;;;;;;18.80;10.55;;;11.20;82.40;;;;;;5013714;28;20085;-75
2021/11/17 02:29:24;;;;;;;18.50;10.88;;;11.20;82.20;;;;;;4998365;28;20028;-75
2021/11/17 02:31:52;;;;;;;18.80;10.50;;;11.20;82.10;;;;;;5013784;28;20018;-75
2021/11/17 02:34:47;;;;;;;18.15;10.30;;;11.20;82.10;;;;;;4996067;28;20022;-75
2021/11/17 02:37:27;;;;;;;16.95;9.70;;;11.20;82.10;;;;;;4966308;28;20042;-75
2021/11/17 02:40:29;;;;;;;19.27;10.90;;;11.20;82.20;;;;;;5013139;28;20022;-75
2021/11/17 02:43:01;;;;;;;19.17;10.20;;;11.20;82.20;;;;;;4995800;28;20100;-73
2021/11/17 02:46:00;;;;;;;17.38;10.10;;;11.20;82.30;;;;;;5013236;28;20026;-75
2021/11/17 02:48:38;;;;;;;17.98;10.68;;;11.20;82.20;;;;;;5013594;28;20096;-75
2021/11/17 02:51:12;;;;;;;18.40;10.63;;;11.20;82.30;;;;;;4995508;28;20030;-75
2021/11/17 02:53:43;;;;;;;18.20;10.35;;;11.20;82.30;;;;;;5013368;28;20096;-75
2021/11/17 02:56:51;;;;;;;17.42;10.15;;;11.20;82.40;;;;;;5013063;28;20130;-75
2021/11/17 02:59:43;;;;;;;16.92;9.77;;;11.20;82.40;;;;;;4996027;28;20117;-75
2021/11/17 03:02:18;;;;;;;17.27;9.80;;;11.20;82.40;;;;;;4995663;28;20056;-74
2021/11/17 03:05:04;;;;;;;16.25;10.02;;;11.20;82.90;;;;;;4979769;28;20462;-76
2021/11/17 03:07:45;;;;;;;19.17;10.32;;;11.20;82.50;;;;;;5013023;28;20442;-74
2021/11/17 03:10:31;;;;;;;17.85;10.45;;;11.20;82.50;;;;;;4996096;28;20033;-75
2021/11/17 03:13:15;;;;;;;17.88;9.80;;;11.20;82.50;;;;;;4996681;28;20029;-75
2021/11/17 03:15:59;;;;;;;17.60;10.32;;;11.20;82.50;;;;;;4995404;28;20018;-74
2021/11/17 03:18:41;;;;;;;16.95;9.88;;;11.20;82.50;;;;;;4997267;28;20052;-75
2021/11/17 03:21:16;;;;;;;18.08;10.30;;;11.20;82.60;;;;;;4964674;28;20419;-75
2021/11/17 03:23:54;;;;;;;15.32;9.30;;;11.20;82.60;;;;;;4995842;28;20034;-75
2021/11/17 03:26:38;;;;;;;15.77;9.18;;;11.20;82.60;;;;;;4978950;28;20076;-74
2021/11/17 03:29:29;;;;;;;16.45;8.75;;;11.20;82.60;;;;;;4995213;28;20026;-74
2021/11/17 03:32:13;;;;;;;16.08;9.18;;;11.20;82.60;;;;;;5012840;28;20042;-75
2021/11/17 03:34:57;;;;;;;15.65;9.50;;;11.20;82.60;;;;;;4995436;28;20440;-75
2021/11/17 03:37:57;;;;;;;18.13;10.38;;;11.20;82.60;;;;;;4994839;28;20033;-77
2021/11/17 03:40:28;;;;;;;14.88;9.15;;;11.20;82.60;;;;;;4978573;28;20026;-75
2021/11/17 03:43:18;;;;;;;16.60;9.57;;;11.20;82.60;;;;;;5012635;28;20044;-74
2021/11/17 03:46:02;;;;;;;16.10;9.15;;;11.20;82.60;;;;;;4994803;28;20038;-75
2021/11/17 03:48:33;;;;;;;16.55;9.75;;;11.20;82.60;;;;;;5012695;28;20018;-75
2021/11/17 03:51:07;;;;;;;16.23;8.77;;;11.20;82.60;;;;;;4994894;28;20022;-74
2021/11/17 03:53:48;;;;;;;17.48;9.23;;;11.20;82.70;;;;;;4994924;28;20152;-74
2021/11/17 03:56:35;;;;;;;15.70;9.20;;;11.20;82.70;;;;;;4979599;28;20030;-74
2021/11/17 03:59:25;;;;;;;17.15;9.18;;;11.20;82.70;;;;;;4991132;28;20030;-74
2021/11/17 04:02:15;;;;;;;16.65;9.60;;;11.20;82.70;;;;;;4975950;28;20031;-75
2021/11/17 04:04:55;;;;;;;16.67;9.25;;;11.20;82.70;;;;;;4977979;28;20126;-75
2021/11/17 04:07:27;;;;;;;16.33;9.40;;;11.20;82.80;;;;;;4963896;28;20440;-75
2021/11/17 04:10:17;;;;;;;15.43;8.90;;;11.20;82.70;;;;;;4979482;28;20065;-75
2021/11/17 04:12:58;;;;;;;15.02;9.23;;;11.30;82.60;;;;;;4963237;28;20027;-76
2021/11/17 04:15:36;;;;;;;17.35;9.35;;;11.30;82.50;;;;;;4996526;28;20482;-75
2021/11/17 04:18:27;;;;;;;15.10;8.57;;;11.30;82.50;;;;;;4979439;28;20030;-74
2021/11/17 04:21:20;;;;;;;16.20;9.32;;;11.30;82.40;;;;;;4979238;28;20022;-74
2021/11/17 04:24:08;;;;;;;15.02;8.63;;;11.30;82.40;;;;;;4979060;28;20420;-75
2021/11/17 04:27:04;;;;;;;17.48;9.65;;;11.30;82.30;;;;;;4980616;28;20022;-74
2021/11/17 04:29:38;;;;;;;15.43;9.13;;;11.30;82.20;;;;;;4979038;28;20667;-74
2021/11/17 04:32:16;;;;;;;15.75;9.15;;;11.30;82.30;;;;;;4978868;28;20034;-75
2021/11/17 04:34:55;;;;;;;16.35;9.70;;;11.30;82.20;;;;;;4996314;28;20057;-75
2021/11/17 04:37:38;;;;;;;15.57;9.20;;;11.30;82.30;;;;;;4962585;28;20027;-76
2021/11/17 04:40:12;;;;;;;15.57;9.32;;;11.40;82.30;;;;;;4978479;28;20567;-74
2021/11/17 04:43:04;;;;;;;15.60;9.27;;;11.40;82.20;;;;;;4962697;28;20026;-74
2021/11/17 04:45:35;;;;;;;16.83;9.65;;;11.40;82.20;;;;;;4962473;28;20172;-75
2021/11/17 04:48:04;;;;;;;;;;;11.40;82.40;;;;;;4963143;28;20023;-74
2021/11/17 04:50:54;;;;;;;14.45;8.50;;;11.40;82.30;;;;;;4978623;28;19906;-75
2021/11/17 04:53:36;;;;;;;16.92;9.60;;;11.30;82.30;;;;;;4962392;28;20076;-75
2021/11/17 04:56:39;;;;;;;17.55;9.43;;;11.30;82.40;;;;;;4979581;28;20125;-75
2021/11/17 04:59:21;;;;;;;16.40;9.50;;;11.30;82.60;;;;;;4995945;28;20034;-75
2021/11/17 05:02:04;;;;;;;17.88;9.60;;;11.20;82.80;;;;;;4947509;28;20061;-74
2021/11/17 05:05:06;;;;;;;15.95;9.85;;;11.20;82.90;;;;;;4995821;28;20028;-75
2021/11/17 05:08:07;;;;;;;16.23;9.00;;;11.20;83.00;;;;;;4949341;28;20076;-75
2021/11/17 05:11:10;;;;;;;17.10;9.23;;;11.20;83.00;;;;;;4995618;28;20022;-74
2021/11/17 05:13:44;;;;;;;16.15;9.60;;;11.20;83.10;;;;;;4995643;28;20381;-74
2021/11/17 05:16:33;;;;;;;16.63;9.82;;;11.20;83.20;;;;;;4961491;28;20027;-74
2021/11/17 05:19:08;;;;;;;16.27;9.85;;;11.20;83.20;;;;;;4947804;28;20019;-75
2021/11/17 05:21:48;;;;;;;16.27;9.52;;;11.20;83.20;;;;;;4995603;28;20026;-75
2021/11/17 05:24:44;;;;;;;16.43;9.43;;;11.20;83.20;;;;;;4995506;28;20022;-74
2021/11/17 05:27:22;;;;;;;16.88;9.52;;;11.20;83.30;;;;;;4977707;28;20033;-75
2021/11/17 05:30:12;;;;;;;15.43;9.00;;;11.20;83.40;;;;;;4977968;28;20536;-75
2021/11/17 05:33:02;;;;;;;16.75;9.43;;;11.20;83.40;;;;;;4977799;28;20033;-75
2021/11/17 05:35:49;;;;;;;17.90;10.45;;;11.20;83.40;;;;;;4964046;28;20022;-75
2021/11/17 05:38:33;;;;;;;17.35;9.55;;;11.20;83.40;;;;;;4995173;28;20054;-74
2021/11/17 05:41:04;;;;;;;17.52;9.82;;;11.20;83.40;;;;;;4962569;28;20021;-75
2021/11/17 05:43:29;;;;;;;17.08;9.65;;;11.20;83.40;;;;;;4996357;28;20130;-76
2021/11/17 05:45:58;;;;;;;18.17;10.00;;;11.20;83.50;;;;;;4994740;28;20094;-74
2021/11/17 05:48:29;;;;;;;16.17;9.32;;;11.20;83.50;;;;;;4994978;28;20023;-75
2021/11/17 05:51:13;;;;;;;17.30;9.90;;;11.20;83.50;;;;;;4961416;28;20092;-75
2021/11/17 05:54:06;;;;;;;15.93;9.25;;;11.20;83.40;;;;;;4977544;28;20034;-75
2021/11/17 05:56:51;;;;;;;15.75;9.35;;;11.20;83.40;;;;;;4977132;28;20121;-75
2021/11/17 05:59:34;;;;;;;15.93;9.35;;;11.20;83.30;;;;;;4956595;28;20109;-75
2021/11/17 06:02:29;;;;;;;15.93;8.85;;;11.20;83.40;;;;;;4994604;28;20029;-75
2021/11/17 06:04:55;;;;;;;16.48;9.05;;;11.20;83.50;;;;;;4984829;28;20038;-75
2021/11/17 06:07:20;;;;;;;17.30;9.88;;;11.20;83.40;;;;;;4994299;28;20032;-75
2021/11/17 06:09:46;;;;;;;16.73;9.52;;;11.20;83.40;;;;;;4977218;28;20019;-75
2021/11/17 06:12:14;;;;;;;18.05;10.32;;;11.20;83.40;;;;;;4992005;28;20125;-75
2021/11/17 06:14:47;;;;;;;18.02;9.93;;;11.20;83.30;;;;;;4994528;28;20084;-75
2021/11/17 06:17:17;;;;;;;16.17;9.77;;;11.20;83.40;;;;;;4994326;28;20061;-74
2021/11/17 06:19:47;;;;;;;17.60;10.00;;;11.20;83.30;;;;;;4991599;28;20040;-77
2021/11/17 06:22:13;;;;;;;17.17;9.55;;;11.20;83.30;;;;;;4976841;28;20061;-75
2021/11/17 06:24:40;;;;;;;19.40;10.25;;;11.20;83.30;;;;;;4994270;28;20061;-75
2021/11/17 06:27:11;;;;;;;17.13;10.30;;;11.20;83.30;;;;;;4975818;28;20409;-74
2021/11/17 06:29:39;;;;;;;16.48;9.57;;;11.10;83.20;;;;;;4976862;28;20026;-75
2021/11/17 06:32:07;;;;;;;17.65;9.98;;;11.20;83.40;;;;;;4976488;28;20062;-75
2021/11/17 06:34:45;;;;;;;16.95;9.52;;;11.20;83.30;;;;;;4976695;28;20023;-75
2021/11/17 06:37:13;;;;;;;18.65;9.90;;;11.20;83.30;;;;;;4976456;28;20099;-75
2021/11/17 06:39:42;;;;;;;17.25;10.60;;;11.20;83.30;;;;;;4976372;28;20026;-74
2021/11/17 06:42:11;;;;;;;18.55;10.23;;;11.20;83.40;;;;;;4976555;28;20587;-73
2021/11/17 06:44:39;;;;;;;16.13;9.93;;;11.20;83.30;;;;;;4976481;28;20547;-77
2021/11/17 06:47:05;;;;;;;17.65;10.95;;;11.20;83.40;;;;;;4976187;28;20058;-75
2021/11/17 06:49:30;;;;;;;17.23;11.13;;;11.20;83.40;;;;;;4976440;28;20037;-75
2021/11/17 06:51:56;;;;;;;17.13;10.93;;;11.20;83.30;;;;;;4993870;28;20022;-76
2021/11/17 06:54:21;;;;;;;18.75;11.43;;;11.20;83.30;;;;;;4993692;28;20026;-75
2021/11/17 06:56:47;;;;;;;17.38;10.90;;;11.10;83.20;;;;;;4993640;28;20026;-74
2021/11/17 06:59:13;;;;;;;17.45;10.90;;;11.20;83.10;;;;;;4976400;28;20026;-75
2021/11/17 07:01:38;;;;;;;20.83;11.43;;;11.10;82.90;;;;;;4993773;28;20097;-75
2021/11/17 07:04:05;;;;;;;23.50;12.13;;;11.10;82.80;;;;;;4993604;28;20477;-76
2021/11/17 07:06:30;;;;;;;23.38;12.30;;;11.20;82.40;;;;;;4994576;28;20062;-76
2021/11/17 07:08:56;;;;;;;23.60;13.35;;;11.10;82.00;;;;;;4976208;28;20054;-75
2021/11/17 07:11:23;;;;;;;20.88;13.10;;;11.20;82.20;;;;;;4976453;28;20023;-75
2021/11/17 07:13:49;;;;;;;22.02;13.27;;;11.10;82.20;;;;;;4993437;28;20472;-75
2021/11/17 07:16:15;;;;;;;25.60;13.73;;;11.10;82.30;;;;;;4993175;28;20077;-75
2021/11/17 07:18:40;;;;;;;21.95;12.80;;;11.20;82.40;;;;;;4993384;28;20030;-74
2021/11/17 07:21:07;;;;;;;21.20;12.80;;;11.10;82.40;;;;;;4977150;28;20026;-74
2021/11/17 07:23:33;;;;;;;18.08;11.98;;;11.10;82.60;;;;;;4976250;28;20448;-75
2021/11/17 07:25:59;;;;;;;25.17;14.30;;;11.10;82.30;;;;;;4993108;28;20057;-75
2021/11/17 07:28:24;;;;;;;23.85;14.10;;;11.10;81.80;;;;;;4976267;28;20477;-75
2021/11/17 07:30:50;;;;;;;22.55;13.35;;;11.10;82.10;;;;;;4993140;28;20035;-75
2021/11/17 07:33:16;;;;;;;21.17;13.10;;;11.10;82.20;;;;;;4975728;28;20583;-75
2021/11/17 07:35:46;;;;;;;21.33;13.32;;;11.10;82.40;;;;;;4993014;28;20033;-75
2021/11/17 07:38:15;;;;;;;22.50;14.20;;;11.20;83.10;;;;;;4993185;28;20515;-76
2021/11/17 07:40:42;;;;;;;22.88;13.95;;;11.10;82.60;;;;;;4975541;28;20019;-75
2021/11/17 07:43:11;;;;;;;20.98;13.48;;;11.10;82.80;;;;;;4975361;28;20129;-75
2021/11/17 07:45:38;;;;;;;24.17;14.52;;;11.10;82.80;;;;;;4992838;28;20081;-75
2021/11/17 07:48:05;;;;;;;20.52;13.13;;;11.20;82.80;;;;;;4982421;28;20023;-75
2021/11/17 07:50:30;;;;;;;20.02;13.77;;;11.10;82.80;;;;;;4956317;28;20019;-76
2021/11/17 07:52:56;;;;;;;22.80;14.25;;;11.20;82.90;;;;;;4956234;28;20110;-75
2021/11/17 07:55:22;;;;;;;21.08;13.98;;;11.20;82.90;;;;;;4973464;28;20023;-74
2021/11/17 07:57:50;;;;;;;24.90;15.40;;;11.20;82.80;;;;;;4964570;28;20054;-75
2021/11/17 08:00:25;;;;;;;20.90;14.05;;;11.20;82.90;;;;;;4956238;28;20041;-74
2021/11/17 08:02:52;;;;;;;24.02;15.25;;;11.20;82.90;;;;;;4973582;28;20118;-76
2021/11/17 08:05:20;;;;;;;23.42;14.80;;;11.10;82.90;;;;;;4955959;28;20031;-75
2021/11/17 08:07:46;;;;;;;23.20;15.00;;;11.20;82.90;;;;;;4955956;28;20033;-75
2021/11/17 08:10:16;;;;;;;22.63;14.65;;;11.20;83.00;;;;;;4956471;28;20388;-75
2021/11/17 08:12:42;;;;;;;24.30;15.05;;;11.20;83.00;;;;;;4973275;28;20031;-75
2021/11/17 08:15:08;;;;;;;23.15;15.00;;;11.20;82.80;;;;;;4992595;28;20504;-78
2021/11/17 08:17:34;;;;;;;23.90;15.90;;;11.20;82.70;;;;;;4975345;28;20033;-74
2021/11/17 08:20:00;;;;;;;23.40;15.43;;;11.20;82.70;;;;;;4975445;28;20030;-74
2021/11/17 08:22:25;;;;;;;23.55;15.15;;;11.20;82.60;;;;;;4992237;28;20037;-75
2021/11/17 08:24:51;;;;;;;24.35;15.77;;;11.20;82.60;;;;;;4975400;28;20126;-75
2021/11/17 08:27:18;;;;;;;26.20;16.85;;;11.20;82.60;;;;;;4974963;28;20026;-75
2021/11/17 08:29:52;;;;;;;24.02;15.43;;;11.30;82.60;;;;;;4992725;28;20026;-75
2021/11/17 08:32:19;;;;;;;25.67;15.40;;;11.30;82.50;;;;;;4975191;28;20027;-74
2021/11/17 08:34:44;;;;;;;25.92;16.60;;;11.30;82.50;;;;;;4975277;28;20564;-75
2021/11/17 08:37:11;;;;;;;27.30;17.13;;;11.30;82.40;;;;;;4992430;28;20030;-74
2021/11/17 08:39:41;;;;;;;25.98;16.25;;;11.30;82.40;;;;;;4992623;28;20026;-74
2021/11/17 08:42:08;;;;;;;28.27;16.10;;;11.30;82.40;;;;;;4975162;28;20117;-75
2021/11/17 08:44:35;;;;;;;27.58;16.52;;;11.30;82.30;;;;;;4992666;28;20042;-75
2021/11/17 08:47:01;;;;;;;28.35;17.00;;;11.30;82.30;;;;;;4974893;28;20070;-75
2021/11/17 08:49:27;;;;;;;26.27;16.77;;;11.30;82.30;;;;;;4972721;28;20027;-76
2021/11/17 08:51:52;;;;;;;25.20;15.30;;;11.30;82.20;;;;;;4978827;28;20385;-77
2021/11/17 08:54:18;;;;;;;26.30;16.00;;;11.30;82.20;;;;;;4978566;28;20019;-76
2021/11/17 08:56:44;;;;;;;26.85;15.88;;;11.30;82.30;;;;;;4995576;28;20447;-76
2021/11/17 08:59:09;;;;;;;33.17;16.38;;;11.40;82.40;;;;;;4977289;28;20054;-75
2021/11/17 09:01:35;;;;;;;35.58;16.67;;;11.30;81.80;;;;;;4974188;28;20391;-75
2021/11/17 09:04:06;;;;;;;30.67;16.52;;;11.30;81.80;;;;;;4974050;28;20101;-75
2021/11/17 09:06:33;;;;;;;28.27;16.17;;;11.30;82.10;;;;;;4974148;28;20113;-75
2021/11/17 09:09:04;;;;;;;28.58;17.08;;;11.30;82.10;;;;;;4990929;28;20113;-75
2021/11/17 09:11:31;;;;;;;26.58;16.08;;;11.30;82.20;;;;;;4968741;28;20034;-77
2021/11/17 09:13:56;;;;;;;28.95;16.60;;;11.20;82.40;;;;;;4971817;28;20033;-75
2021/11/17 09:16:22;;;;;;;25.77;16.27;;;11.20;82.70;;;;;;4974112;28;20038;-75
2021/11/17 09:18:52;;;;;;;24.10;15.27;;;11.20;82.80;;;;;;4990579;28;20058;-77
2021/11/17 09:21:19;;;;;;;27.38;16.50;;;11.20;82.90;;;;;;4973663;28;20437;-76
2021/11/17 09:23:45;;;;;;;25.95;15.73;;;11.10;82.90;;;;;;4973728;28;20484;-75
2021/11/17 09:26:12;;;;;;;24.27;15.95;;;11.10;83.00;;;;;;4973501;28;20034;-75
2021/11/17 09:28:38;;;;;;;24.20;15.10;;;11.10;83.00;;;;;;4991677;28;20546;-76
2021/11/17 09:31:06;;;;;;;22.30;14.80;;;11.10;83.10;;;;;;4973705;28;20022;-76
2021/11/17 09:33:33;;;;;;;23.95;15.30;;;11.10;83.10;;;;;;4973258;28;20027;-77
2021/11/17 09:35:59;;;;;;;20.45;13.88;;;11.10;83.20;;;;;;4990919;28;20030;-76
2021/11/17 09:38:25;;;;;;;22.80;15.45;;;11.10;83.20;;;;;;4973606;28;20907;-76
2021/11/17 09:40:53;;;;;;;21.55;13.88;;;11.10;83.30;;;;;;4973836;28;20033;-76
2021/11/17 09:43:23;;;;;;;24.08;14.02;;;11.10;83.30;;;;;;4973427;28;20039;-75
2021/11/17 09:45:50;;;;;;;27.55;14.30;;;11.10;83.20;;;;;;4972868;28;20031;-76
2021/11/17 09:48:23;;;;;;;24.00;14.73;;;11.10;83.30;;;;;;4990143;28;20026;-75
2021/11/17 09:51:08;;;;;;;22.08;14.13;;;11.10;83.20;;;;;;4990680;28;20145;-75
2021/11/17 09:53:40;;;;;;;20.25;13.20;;;11.10;83.20;;;;;;4971783;28;20034;-76
2021/11/17 09:56:13;;;;;;;19.90;13.43;;;11.10;83.20;;;;;;4971926;28;20484;-75
2021/11/17 09:58:46;;;;;;;20.45;13.10;;;11.10;83.30;;;;;;4971196;28;20034;-76
2021/11/17 10:01:25;;;;;;;20.85;12.57;;;11.10;83.30;;;;;;4989717;28;20377;-75
2021/11/17 10:04:05;;;;;;;20.83;13.38;;;11.10;83.30;;;;;;4973458;28;20034;-76
2021/11/17 10:13:08;;;;;;;18.80;12.52;;;11.10;83.40;;;;;;4987760;28;20031;-80
2021/11/17 10:15:38;;;;;;;20.05;13.05;;;11.20;83.40;;;;;;4972686;28;20038;-76
2021/11/17 10:18:07;;;;;;;21.17;13.43;;;11.10;83.30;;;;;;4973367;28;20054;-75
2021/11/17 10:20:40;;;;;;;20.10;13.18;;;11.10;83.40;;;;;;4973266;28;20066;-76
2021/11/17 10:23:06;;;;;;;19.55;12.70;;;11.20;83.40;;;;;;4990625;28;20035;-76
2021/11/17 10:25:55;;;;;;;19.90;13.13;;;11.10;83.40;;;;;;4990155;28;20027;-75
2021/11/17 10:28:32;;;;;;;20.08;12.60;;;11.10;83.40;;;;;;4972778;28;20038;-77
2021/11/17 10:31:37;;;;;;;18.60;12.93;;;11.20;83.50;;;;;;4972374;28;20030;-79
2021/11/17 10:34:08;;;;;;;20.83;13.23;;;11.20;83.50;;;;;;4971436;28;20038;-75
2021/11/17 10:36:52;;;;;;;20.95;12.82;;;11.20;83.60;;;;;;4989791;28;20030;-75
2021/11/17 10:39:42;;;;;;;19.13;12.27;;;11.10;83.60;;;;;;4971053;28;20465;-76
2021/11/17 10:42:19;;;;;;;20.13;12.32;;;11.10;83.60;;;;;;4989826;28;20033;-78
2021/11/17 10:45:02;;;;;;;19.38;12.80;;;11.10;83.60;;;;;;4969436;28;20066;-76
2021/11/17 10:47:28;;;;;;;18.77;12.05;;;11.20;83.70;;;;;;4970217;28;20034;-77
2021/11/17 10:50:16;;;;;;;22.15;12.90;;;11.10;83.60;;;;;;4972295;28;20026;-76
2021/11/17 10:52:51;;;;;;;21.58;12.38;;;11.20;83.70;;;;;;4974666;28;20035;-75
2021/11/17 10:55:36;;;;;;;18.80;12.60;;;11.20;83.80;;;;;;4986952;28;20072;-77
2021/11/17 10:58:04;;;;;;;18.98;12.68;;;11.20;83.80;;;;;;4970424;28;20871;-77
2021/11/17 11:00:34;;;;;;;18.60;12.18;;;11.20;83.80;;;;;;4989751;28;20403;-76
2021/11/17 11:03:02;;;;;;;17.45;10.98;;;11.20;83.90;;;;;;4989995;28;20038;-76
2021/11/17 11:05:44;;;;;;;19.08;12.45;;;11.20;83.90;;;;;;5107354;27;1200436;-76
2021/11/17 11:08:35;;;;;;;18.60;12.15;;;11.20;83.90;;;;;;5115572;28;20458;-76
2021/11/17 11:11:01;;;;;;;;;;;11.20;83.90;;;;;;5116176;28;20123;-78
2021/11/17 11:13:39;;;;;;;18.40;11.50;;;11.20;84.00;;;;;;5105585;28;19904;-75
2021/11/17 11:16:19;;;;;;;19.15;12.38;;;11.20;84.00;;;;;;5104830;28;20077;-75
2021/11/17 11:19:17;;;;;;;17.85;12.57;;;11.20;84.00;;;;;;5105106;28;20024;-76
2021/11/17 11:21:46;;;;;;;19.13;12.43;;;11.20;84.10;;;;;;5106193;28;20038;-75
2021/11/17 11:24:34;;;;;;;19.73;11.98;;;11.20;84.20;;;;;;5104679;28;20101;-75
2021/11/17 11:26:59;;;;;;;18.63;12.48;;;11.20;84.20;;;;;;5104778;28;20503;-76
2021/11/17 11:29:34;;;;;;;19.60;12.60;;;11.20;84.20;;;;;;5101544;28;20114;-76
2021/11/17 11:32:07;;;;;;;19.40;12.43;;;11.20;84.20;;;;;;5106259;28;20025;-77
2021/11/17 11:34:35;;;;;;;21.65;13.57;;;11.20;84.30;;;;;;5105581;28;20468;-78
2021/11/17 11:37:08;;;;;;;21.05;13.68;;;11.20;84.30;;;;;;5103933;28;20099;-76
2021/11/17 11:39:37;;;;;;;19.80;12.68;;;11.20;84.30;;;;;;5105684;28;20036;-79
2021/11/17 11:42:17;;;;;;;19.02;12.57;;;11.20;84.30;;;;;;5105816;28;20036;-75
2021/11/17 11:44:45;;;;;;;19.02;12.85;;;11.20;84.40;;;;;;5104749;28;20027;-76
2021/11/17 11:47:10;;;;;;;21.30;13.68;;;11.20;84.40;;;;;;5105551;28;20035;-75
2021/11/17 11:49:53;;;;;;;20.90;14.13;;;11.20;84.50;;;;;;5097909;28;20028;-77
2021/11/17 11:52:48;;;;;;;18.55;12.80;;;11.20;84.50;;;;;;5111861;28;20024;-78
2021/11/17 11:55:16;;;;;;;21.42;13.50;;;11.20;84.60;;;;;;5094853;28;20028;-77
2021/11/17 11:58:05;;;;;;;20.13;13.43;;;11.20;84.60;;;;;;5098311;28;20056;-76
2021/11/17 12:00:34;;;;;;;19.92;13.02;;;11.20;84.60;;;;;;5073114;28;20503;-75
2021/11/17 12:03:06;;;;;;;22.00;13.70;;;11.20;84.60;;;;;;5095049;28;20028;-76
2021/11/17 12:05:36;;;;;;;22.17;14.18;;;11.20;84.70;;;;;;5090145;28;20062;-75
2021/11/17 12:08:27;;;;;;;21.45;13.63;;;11.20;84.70;;;;;;5092266;28;20017;-78
2021/11/17 12:11:09;;;;;;;21.52;13.93;;;11.20;84.70;;;;;;5094897;28;20399;-76
2021/11/17 12:13:57;;;;;;;22.23;13.98;;;11.20;84.80;;;;;;5090447;28;20016;-76
2021/11/17 12:16:28;;;;;;;22.90;14.60;;;11.20;84.80;;;;;;5079042;28;20024;-76
2021/11/17 12:19:09;;;;;;;23.50;14.82;;;11.20;84.80;;;;;;5077222;28;20028;-76
2021/11/17 12:21:41;;;;;;;;;;;11.20;84.90;;;;;;5080936;28;20041;-76
2021/11/17 12:24:12;;;;;;;20.83;14.35;;;11.20;84.90;;;;;;5079557;28;20392;-77
2021/11/17 12:26:41;;;;;;;23.20;15.57;;;11.20;84.90;;;;;;5081030;28;20024;-75
2021/11/17 12:29:23;;;;;;;22.17;14.25;;;11.20;84.90;;;;;;5077531;28;20494;-75
2021/11/17 12:31:54;;;;;;;21.23;14.55;;;11.20;84.90;;;;;;5079314;28;20062;-76
2021/11/17 12:34:30;;;;;;;27.50;15.10;;;11.20;84.70;;;;;;5080302;28;20032;-76
2021/11/17 12:37:24;;;;;;;22.58;14.70;;;11.20;84.90;;;;;;5079029;28;20020;-77
2021/11/17 12:39:58;;;;;;;25.52;15.30;;;11.20;84.80;;;;;;5070174;28;20047;-78
2021/11/17 12:42:53;;;;;;;22.45;14.00;;;11.30;84.50;;;;;;5078693;28;20056;-78
2021/11/17 12:45:29;;;;;;;22.33;14.25;;;11.30;84.20;;;;;;5083377;28;20036;-76
2021/11/17 12:47:54;;;;;;;22.15;14.43;;;11.30;84.20;;;;;;5091061;28;20024;-76
2021/11/17 12:50:44;;;;;;;20.98;14.43;;;11.30;84.20;;;;;;5091238;28;20030;-76
2021/11/17 12:53:24;;;;;;;24.15;15.20;;;11.30;84.10;;;;;;5089847;28;20131;-76
2021/11/17 12:56:02;;;;;;;22.40;13.75;;;11.40;84.20;;;;;;5089035;28;20092;-75
2021/11/17 12:58:39;;;;;;;21.10;13.73;;;11.40;84.20;;;;;;5088412;28;20759;-75
2021/11/17 13:01:10;;;;;;;23.35;14.43;;;11.40;84.30;;;;;;5089587;28;20032;-80
2021/11/17 13:03:48;;;;;;;21.60;13.60;;;11.40;84.20;;;;;;5082888;28;20040;-76
2021/11/17 13:06:28;;;;;;;22.40;14.30;;;11.40;84.20;;;;;;5077626;28;20051;-78
2021/11/17 13:09:15;;;;;;;19.85;13.05;;;11.40;84.30;;;;;;5089854;28;20124;-75
2021/11/17 13:12:06;;;;;;;20.88;13.93;;;11.40;84.20;;;;;;5090990;28;20566;-75
2021/11/17 13:14:51;;;;;;;20.95;13.48;;;11.40;84.20;;;;;;5079873;28;20041;-75
2021/11/17 13:17:21;;;;;;;21.33;13.82;;;11.40;84.20;;;;;;5069207;28;20025;-75
2021/11/17 13:19:53;;;;;;;22.98;13.63;;;11.40;84.40;;;;;;5076939;28;20032;-75
2021/11/17 13:22:39;;;;;;;20.42;13.60;;;11.40;84.60;;;;;;5082941;28;20031;-76
2021/11/17 13:25:18;;;;;;;19.42;12.63;;;11.40;85.40;;;;;;5082974;28;20028;-76
2021/11/17 13:27:54;;;;;;;20.83;13.10;;;11.40;85.20;;;;;;5088530;28;20115;-75
2021/11/17 13:30:40;;;;;;;22.05;13.32;;;11.30;85.40;;;;;;5090391;28;20073;-76
2021/11/17 13:33:28;;;;;;;22.10;13.82;;;11.30;85.50;;;;;;5090339;28;20021;-76
2021/11/17 13:36:14;;;;;;;20.13;12.77;;;11.30;85.70;;;;;;5089076;28;20030;-75
2021/11/17 13:38:58;;;;;;;18.70;12.70;;;11.30;85.90;;;;;;5090449;28;20016;-76
2021/11/17 13:41:24;;;;;;;19.80;13.30;;;11.30;85.90;;;;;;5088906;28;20032;-80
2021/11/17 14:05:40;;;;;;;20.55;13.40;;;11.40;85.10;;;;;;5123803;27;20390;-77
2021/11/17 14:08:07;;;;;;;20.25;13.15;;;11.30;86.20;;;;;;5123088;28;20508;-77
2021/11/17 14:10:33;;;;;;;23.88;13.23;;;11.30;86.20;;;;;;5122840;28;20443;-77
2021/11/17 14:13:00;;;;;;;21.63;14.13;;;11.30;86.40;;;;;;5123820;27;20024;-77
2021/11/17 14:15:27;;;;;;;20.75;13.25;;;11.30;86.50;;;;;;5122343;28;20031;-80
2021/11/17 14:17:52;;;;;;;22.67;14.25;;;11.30;86.60;;;;;;5124196;27;20035;-77
2021/11/17 14:20:19;;;;;;;20.35;13.10;;;11.30;86.80;;;;;;5122532;28;20434;-79
2021/11/17 14:22:45;;;;;;;23.45;13.18;;;11.30;86.80;;;;;;5124439;27;20023;-78
2021/11/17 14:25:16;;;;;;;22.33;13.18;;;11.30;86.90;;;;;;5122112;28;20031;-76
2021/11/17 14:27:45;;;;;;;20.00;13.13;;;11.40;87.00;;;;;;5122573;28;20032;-77
2021/11/17 14:30:17;;;;;;;19.95;12.10;;;11.30;86.90;;;;;;5122758;28;20270;-76
2021/11/17 14:32:45;;;;;;;19.27;12.10;;;11.30;87.10;;;;;;5122199;28;20027;-76
2021/11/17 14:35:13;;;;;;;20.40;13.45;;;11.30;87.10;;;;;;5122257;28;20035;-76
2021/11/17 14:37:41;;;;;;;19.73;12.68;;;11.40;87.20;;;;;;5123746;27;20072;-77
2021/11/17 14:40:07;;;;;;;20.45;13.48;;;11.30;87.20;;;;;;5122245;28;20023;-78
2021/11/17 14:42:33;;;;;;;18.75;12.35;;;11.30;87.30;;;;;;5123735;27;20110;-77
2021/11/17 14:44:59;;;;;;;19.08;12.55;;;11.30;87.40;;;;;;5122084;28;20418;-76
2021/11/17 14:47:25;;;;;;;19.73;12.88;;;11.30;87.40;;;;;;5123847;28;20028;-76
2021/11/17 14:49:50;;;;;;;19.33;12.68;;;11.30;87.50;;;;;;5122367;28;20541;-78
2021/11/17 14:52:19;;;;;;;17.98;12.10;;;11.30;87.60;;;;;;5122204;28;20115;-76
2021/11/17 14:54:46;;;;;;;17.90;11.65;;;11.30;87.50;;;;;;5122787;27;20023;-77
2021/11/17 14:57:11;;;;;;;18.20;11.82;;;11.30;87.50;;;;;;5123051;27;20117;-77
2021/11/17 14:59:37;;;;;;;19.35;12.75;;;11.30;87.60;;;;;;5121966;28;20063;-79
2021/11/17 15:02:04;;;;;;;19.42;13.13;;;11.30;87.60;;;;;;5121802;28;20096;-80
2021/11/17 15:04:34;;;;;;;17.52;12.23;;;11.30;87.60;;;;;;5119977;28;20039;-80
2021/11/17 15:07:01;;;;;;;19.08;12.05;;;11.30;87.70;;;;;;5107828;28;20027;-77
2021/11/17 15:09:26;;;;;;;18.23;11.48;;;11.30;87.70;;;;;;5109127;28;20027;-76
2021/11/17 15:12:02;;;;;;;19.70;12.57;;;11.30;87.70;;;;;;5108048;28;20088;-76
2021/11/17 15:14:30;;;;;;;16.15;11.43;;;11.40;87.90;;;;;;5107567;28;20125;-77
2021/11/17 15:16:55;;;;;;;18.92;12.02;;;11.30;87.90;;;;;;5109506;28;20024;-77
2021/11/17 15:19:21;;;;;;;18.83;11.55;;;11.30;88.00;;;;;;5107927;28;20020;-75
2021/11/17 15:21:50;;;;;;;19.83;11.70;;;11.30;88.00;;;;;;5109310;28;20050;-77
2021/11/17 15:24:17;;;;;;;21.30;11.80;;;11.30;88.60;;;;;;5111459;28;20027;-76
2021/11/17 15:26:53;;;;;;;19.25;11.25;;;11.30;89.00;;;;;;5109853;28;20233;-77
2021/11/17 15:29:20;;;;;;;19.38;11.15;;;11.30;88.60;;;;;;5111435;28;20020;-77
2021/11/17 15:31:45;;;;;;;19.42;11.95;;;11.30;88.80;;;;;;5111376;28;20031;-77
2021/11/17 15:34:11;;;;;;;16.73;11.23;;;11.30;88.10;;;;;;5110791;28;20031;-77
2021/11/17 15:36:37;;;;;;;17.98;11.15;;;11.30;88.00;;;;;;5122675;27;20093;-79
2021/11/17 15:39:04;;;;;;;21.65;12.07;;;11.30;88.00;;;;;;5120289;27;20051;-77
2021/11/17 15:41:30;;;;;;;17.88;10.80;;;11.30;88.00;;;;;;5106823;28;20046;-77
2021/11/17 15:43:56;;;;;;;21.58;12.00;;;11.30;87.90;;;;;;5112112;27;20027;-76
2021/11/17 15:46:23;;;;;;;18.92;11.70;;;11.30;87.90;;;;;;5129780;27;20027;-76
2021/11/17 15:48:49;;;;;;;19.75;11.85;;;11.30;88.00;;;;;;5129895;27;20118;-77
2021/11/17 15:51:20;;;;;;;22.42;11.57;;;11.20;88.00;;;;;;5130175;27;20802;-76
2021/11/17 15:53:47;;;;;;;21.10;11.15;;;11.30;87.90;;;;;;5129890;27;20035;-75
2021/11/17 15:56:13;;;;;;;18.67;10.82;;;11.30;87.90;;;;;;5129968;27;20517;-78
2021/11/17 15:58:39;;;;;;;23.85;11.10;;;11.30;87.80;;;;;;5131771;27;20019;-78
2021/11/17 16:01:05;;;;;;;24.13;11.90;;;11.30;87.90;;;;;;5130166;27;20068;-76